Time,TemperatureF,DewpointF,PressureIn,WindDirection,WindDirectionDegrees,WindSpeedMPH,WindSpeedGustMPH,Humidity,HourlyPrecipIn,Conditions,Clouds,dailyrainin,SoftwareType,DateUTC
2013-01-22 00:53:00,62.0,-99.9,-100.00,West,280,2.0,6.0,-999,-99.99,,,-99.99,,2013-01-22 05:53:00,
2013-01-22 01:53:00,61.0,-99.9,-100.00,WNW,300,3.0,5.0,-999,-99.99,,,-99.99,,2013-01-22 06:53:00,
2013-01-22 02:53:00,61.0,-99.9,-100.00,WNW,300,2.0,5.0,-999,-99.99,,,-99.99,,2013-01-22 07:53:00,
2013-01-22 03:53:00,62.0,-99.9,-100.00,NW,320,5.0,9.0,-999,-99.99,,,-99.99,,2013-01-22 08:53:00,
2013-01-22 04:43:00,61.0,-99.9,-100.00,North,360,3.0,8.0,-999,-99.99,,,-99.99,,2013-01-22 09:43:00,
2013-01-22 04:53:00,61.0,-99.9,-100.00,North,360,3.0,8.0,-999,-99.99,,,-99.99,,2013-01-22 09:53:00,
2013-01-22 05:43:00,60.0,-99.9,-100.00,North,360,5.0,7.0,-999,-99.99,,,-99.99,,2013-01-22 10:43:00,
2013-01-22 05:53:00,60.0,-99.9,-100.00,North,360,5.0,7.0,-999,-99.99,,,-99.99,,2013-01-22 10:53:00,
2013-01-22 05:54:00,60.0,-99.9,-100.00,North,350,5.0,10.0,-999,-99.99,,,-99.99,,2013-01-22 10:54:00,
2013-01-22 06:43:00,60.0,-99.9,-100.00,North,350,5.0,10.0,-999,-99.99,,,-99.99,,2013-01-22 11:43:00,
2013-01-22 07:53:00,59.0,-99.9,-100.00,NW,310,2.0,3.0,-999,-99.99,,,-99.99,,2013-01-22 12:53:00,
2013-01-22 08:54:00,59.0,-99.9,-100.00,North,360,6.0,9.0,-999,-99.99,,,-99.99,,2013-01-22 13:54:00,
2013-01-22 09:54:00,59.0,-99.9,-100.00,North,10,6.0,14.0,-999,-99.99,,,-99.99,,2013-01-22 14:54:00,
2013-01-22 10:54:00,62.0,-99.9,-100.00,NNE,30,5.0,11.0,-999,-99.99,,,-99.99,,2013-01-22 15:54:00,
2013-01-22 11:54:00,64.0,-99.9,-100.00,NE,50,7.0,13.0,-999,-99.99,,,-99.99,,2013-01-22 16:54:00,
2013-01-22 12:54:00,65.0,-99.9,-100.00,NNE,20,6.0,10.0,-999,-99.99,,,-99.99,,2013-01-22 17:54:00,
2013-01-22 13:44:00,65.0,-99.9,-100.00,NNE,20,6.0,10.0,-999,-99.99,,,-99.99,,2013-01-22 18:44:00,
2013-01-22 13:54:00,66.0,-99.9,-100.00,NNE,20,5.0,11.0,-999,-99.99,,,-99.99,,2013-01-22 18:54:00,
2013-01-22 14:54:00,67.0,-99.9,-100.00,NE,50,5.0,9.0,-999,-99.99,,,-99.99,,2013-01-22 19:54:00,
2013-01-22 16:53:00,66.0,-99.9,-100.00,NNE,20,7.0,13.0,-999,-99.99,,,-99.99,,2013-01-22 21:53:00,
2013-01-22 17:53:00,65.0,-99.9,-100.00,NE,40,5.0,11.0,-999,-99.99,,,-99.99,,2013-01-22 22:53:00,
2013-01-22 18:43:00,63.0,-99.9,-100.00,NNE,30,3.0,7.0,-999,-99.99,,,-99.99,,2013-01-22 23:43:00,
2013-01-22 18:53:00,63.0,-99.9,-100.00,NNE,30,3.0,7.0,-999,-99.99,,,-99.99,,2013-01-22 23:53:00,
2013-01-22 19:53:00,62.0,-99.9,-100.00,NE,40,3.0,8.0,-999,-99.99,,,-99.99,,2013-01-23 00:53:00,
2013-01-22 20:43:00,61.0,-99.9,-100.00,NE,50,2.0,6.0,-999,-99.99,,,-99.99,,2013-01-23 01:43:00,
2013-01-22 20:53:00,61.0,-99.9,-100.00,NE,50,2.0,6.0,-999,-99.99,,,-99.99,,2013-01-23 01:53:00,
2013-01-22 20:54:00,60.0,-99.9,-100.00,NE,50,2.0,5.0,-999,-99.99,,,-99.99,,2013-01-23 01:54:00,
2013-01-22 22:53:00,60.0,-99.9,-100.00,ENE,60,2.0,6.0,-999,-99.99,,,-99.99,,2013-01-23 03:53:00,
2013-01-22 23:53:00,59.0,-99.9,-100.00,NNE,30,2.0,5.0,-999,-99.99,,,-99.99,,2013-01-23 04:53:00,